sensor_id;sensor_type;location;lat;lon;timestamp;temperature;humidity
2226;DHT22;1119;48.288;8.726;2023-02-12T00:01:37;4.10;99.90
2226;DHT22;1119;48.288;8.726;2023-02-12T00:04:05;4.20;99.90
2226;DHT22;1119;48.288;8.726;2023-02-12T00:06:32;4.30;99.90
2226;DHT22;1119;48.288;8.726;2023-02-12T00:08:59;4.40;99.90
2226;DHT22;1119;48.288;8.726;2023-02-12T00:11:28;4.30;99.90
2226;DHT22;1119;48.288;8.726;2023-02-12T00:13:56;4.30;99.90
2226;DHT22;1119;48.288;8.726;2023-02-12T00:16:27;4.20;99.90
2226;DHT22;1119;48.288;8.726;2023-02-12T00:18:55;4.10;99.90
2226;DHT22;1119;48.288;8.726;2023-02-12T00:21:24;4.10;99.90
2226;DHT22;1119;48.288;8.726;2023-02-12T00:23:51;4.00;99.90
2226;DHT22;1119;48.288;8.726;2023-02-12T00:26:20;4.10;99.90
2226;DHT22;1119;48.288;8.726;2023-02-12T00:28:53;4.10;99.90
2226;DHT22;1119;48.288;8.726;2023-02-12T00:31:25;4.20;99.90
2226;DHT22;1119;48.288;8.726;2023-02-12T00:33:55;3.80;99.90
2226;DHT22;1119;48.288;8.726;2023-02-12T00:36:26;4.10;99.90
2226;DHT22;1119;48.288;8.726;2023-02-12T00:38:55;4.30;99.90
2226;DHT22;1119;48.288;8.726;2023-02-12T00:41:24;4.10;99.90
2226;DHT22;1119;48.288;8.726;2023-02-12T00:43:52;4.10;99.90
2226;DHT22;1119;48.288;8.726;2023-02-12T00:46:20;4.20;99.90
2226;DHT22;1119;48.288;8.726;2023-02-12T00:48:49;4.20;99.90
2226;DHT22;1119;48.288;8.726;2023-02-12T00:51:19;4.10;99.90
2226;DHT22;1119;48.288;8.726;2023-02-12T00:53:46;4.20;99.90
2226;DHT22;1119;48.288;8.726;2023-02-12T00:56:14;4.20;99.90
2226;DHT22;1119;48.288;8.726;2023-02-12T00:58:41;4.30;99.90
2226;DHT22;1119;48.288;8.726;2023-02-12T01:01:08;4.20;99.90
2226;DHT22;1119;48.288;8.726;2023-02-12T01:03:36;4.30;99.90
2226;DHT22;1119;48.288;8.726;2023-02-12T01:06:05;4.40;99.90
2226;DHT22;1119;48.288;8.726;2023-02-12T01:08:33;4.40;99.90
2226;DHT22;1119;48.288;8.726;2023-02-12T01:11:02;4.50;99.90
2226;DHT22;1119;48.288;8.726;2023-02-12T01:13:32;4.50;99.90
2226;DHT22;1119;48.288;8.726;2023-02-12T01:16:02;4.60;99.90
2226;DHT22;1119;48.288;8.726;2023-02-12T01:18:31;4.70;99.90
2226;DHT22;1119;48.288;8.726;2023-02-12T01:20:58;4.70;99.90
2226;DHT22;1119;48.288;8.726;2023-02-12T01:23:27;4.70;99.90
2226;DHT22;1119;48.288;8.726;2023-02-12T01:25:57;4.70;99.90
2226;DHT22;1119;48.288;8.726;2023-02-12T01:28:25;4.60;99.90
2226;DHT22;1119;48.288;8.726;2023-02-12T01:30:52;4.60;99.90
2226;DHT22;1119;48.288;8.726;2023-02-12T01:33:19;4.60;99.90
2226;DHT22;1119;48.288;8.726;2023-02-12T01:35:47;4.70;99.90
2226;DHT22;1119;48.288;8.726;2023-02-12T01:38:14;4.70;99.90
2226;DHT22;1119;48.288;8.726;2023-02-12T01:40:43;4.70;99.90
2226;DHT22;1119;48.288;8.726;2023-02-12T01:43:10;4.70;99.90
2226;DHT22;1119;48.288;8.726;2023-02-12T01:45:48;4.50;99.90
2226;DHT22;1119;48.288;8.726;2023-02-12T01:48:21;4.50;99.90
2226;DHT22;1119;48.288;8.726;2023-02-12T01:50:51;4.50;99.90
2226;DHT22;1119;48.288;8.726;2023-02-12T01:53:20;4.60;99.90
2226;DHT22;1119;48.288;8.726;2023-02-12T01:55:52;4.60;99.90
2226;DHT22;1119;48.288;8.726;2023-02-12T01:58:23;4.60;99.90
2226;DHT22;1119;48.288;8.726;2023-02-12T02:05:37;4.60;99.90
2226;DHT22;1119;48.288;8.726;2023-02-12T02:08:08;4.50;99.90
2226;DHT22;1119;48.288;8.726;2023-02-12T02:10:36;4.50;99.90
2226;DHT22;1119;48.288;8.726;2023-02-12T02:13:05;4.60;99.90
2226;DHT22;1119;48.288;8.726;2023-02-12T02:15:53;4.60;99.90
2226;DHT22;1119;48.288;8.726;2023-02-12T02:18:26;4.70;99.90
2226;DHT22;1119;48.288;8.726;2023-02-12T02:21:25;4.70;99.90
2226;DHT22;1119;48.288;8.726;2023-02-12T02:27:21;4.80;99.90
2226;DHT22;1119;48.288;8.726;2023-02-12T02:30:17;4.70;99.90
2226;DHT22;1119;48.288;8.726;2023-02-12T02:33:08;4.80;99.90
2226;DHT22;1119;48.288;8.726;2023-02-12T02:35:45;4.70;99.90
2226;DHT22;1119;48.288;8.726;2023-02-12T02:38:23;4.60;99.90
2226;DHT22;1119;48.288;8.726;2023-02-12T02:41:01;4.50;99.90
2226;DHT22;1119;48.288;8.726;2023-02-12T02:43:33;4.50;99.90
2226;DHT22;1119;48.288;8.726;2023-02-12T02:46:07;4.60;99.90
2226;DHT22;1119;48.288;8.726;2023-02-12T02:48:39;4.70;99.90
2226;DHT22;1119;48.288;8.726;2023-02-12T02:51:13;4.70;99.90
2226;DHT22;1119;48.288;8.726;2023-02-12T02:53:47;4.70;99.90
2226;DHT22;1119;48.288;8.726;2023-02-12T02:56:19;4.70;99.90
2226;DHT22;1119;48.288;8.726;2023-02-12T02:58:52;4.70;99.90
2226;DHT22;1119;48.288;8.726;2023-02-12T03:01:26;4.70;99.90
2226;DHT22;1119;48.288;8.726;2023-02-12T03:04:00;4.70;99.90
2226;DHT22;1119;48.288;8.726;2023-02-12T03:06:33;4.60;99.90
2226;DHT22;1119;48.288;8.726;2023-02-12T03:09:10;4.50;99.90
2226;DHT22;1119;48.288;8.726;2023-02-12T03:11:41;4.50;99.90
2226;DHT22;1119;48.288;8.726;2023-02-12T03:14:14;4.60;99.90
2226;DHT22;1119;48.288;8.726;2023-02-12T03:16:49;4.60;99.90
2226;DHT22;1119;48.288;8.726;2023-02-12T03:19:22;4.50;99.90
2226;DHT22;1119;48.288;8.726;2023-02-12T03:21:53;4.50;99.90
2226;DHT22;1119;48.288;8.726;2023-02-12T03:24:26;4.60;99.90
2226;DHT22;1119;48.288;8.726;2023-02-12T03:27:01;4.60;99.90
2226;DHT22;1119;48.288;8.726;2023-02-12T03:29:40;4.60;99.90
2226;DHT22;1119;48.288;8.726;2023-02-12T03:32:28;4.60;99.90
2226;DHT22;1119;48.288;8.726;2023-02-12T03:35:07;4.70;99.90
2226;DHT22;1119;48.288;8.726;2023-02-12T03:37:40;4.60;99.90
2226;DHT22;1119;48.288;8.726;2023-02-12T03:40:15;4.60;99.90
2226;DHT22;1119;48.288;8.726;2023-02-12T03:42:49;4.70;99.90
2226;DHT22;1119;48.288;8.726;2023-02-12T03:45:34;4.80;99.90
2226;DHT22;1119;48.288;8.726;2023-02-12T03:48:12;4.80;99.90
2226;DHT22;1119;48.288;8.726;2023-02-12T03:50:47;4.80;99.90
2226;DHT22;1119;48.288;8.726;2023-02-12T03:53:19;4.70;99.90
2226;DHT22;1119;48.288;8.726;2023-02-12T03:55:49;4.70;99.90
2226;DHT22;1119;48.288;8.726;2023-02-12T03:58:21;4.90;99.90
2226;DHT22;1119;48.288;8.726;2023-02-12T04:00:50;4.80;99.90
2226;DHT22;1119;48.288;8.726;2023-02-12T04:03:19;4.80;99.90
2226;DHT22;1119;48.288;8.726;2023-02-12T04:05:47;4.70;99.90
2226;DHT22;1119;48.288;8.726;2023-02-12T04:08:14;4.90;99.90
2226;DHT22;1119;48.288;8.726;2023-02-12T04:10:50;4.90;99.90
2226;DHT22;1119;48.288;8.726;2023-02-12T04:13:27;5.00;99.90
2226;DHT22;1119;48.288;8.726;2023-02-12T04:16:06;5.00;99.90
2226;DHT22;1119;48.288;8.726;2023-02-12T04:18:42;5.00;99.90
2226;DHT22;1119;48.288;8.726;2023-02-12T04:21:17;5.00;99.90
2226;DHT22;1119;48.288;8.726;2023-02-12T04:23:55;5.10;99.90
2226;DHT22;1119;48.288;8.726;2023-02-12T04:26:34;5.10;99.90
2226;DHT22;1119;48.288;8.726;2023-02-12T04:29:13;5.00;99.90
2226;DHT22;1119;48.288;8.726;2023-02-12T04:31:48;4.90;99.90
2226;DHT22;1119;48.288;8.726;2023-02-12T04:34:25;4.80;99.90
2226;DHT22;1119;48.288;8.726;2023-02-12T04:36:59;5.00;99.90
2226;DHT22;1119;48.288;8.726;2023-02-12T04:39:31;5.00;99.90
2226;DHT22;1119;48.288;8.726;2023-02-12T04:42:01;5.00;99.90
2226;DHT22;1119;48.288;8.726;2023-02-12T04:44:31;5.00;99.90
2226;DHT22;1119;48.288;8.726;2023-02-12T04:47:03;5.00;99.90
2226;DHT22;1119;48.288;8.726;2023-02-12T04:49:32;5.00;99.90
2226;DHT22;1119;48.288;8.726;2023-02-12T04:51:59;4.90;99.90
2226;DHT22;1119;48.288;8.726;2023-02-12T04:54:27;4.90;99.90
2226;DHT22;1119;48.288;8.726;2023-02-12T04:56:54;4.90;99.90
2226;DHT22;1119;48.288;8.726;2023-02-12T04:59:21;4.80;99.90
2226;DHT22;1119;48.288;8.726;2023-02-12T05:01:48;4.80;99.90
2226;DHT22;1119;48.288;8.726;2023-02-12T05:04:16;4.70;99.90
2226;DHT22;1119;48.288;8.726;2023-02-12T05:06:46;4.70;99.90
2226;DHT22;1119;48.288;8.726;2023-02-12T05:09:15;4.80;99.90
2226;DHT22;1119;48.288;8.726;2023-02-12T05:11:44;4.70;99.90
2226;DHT22;1119;48.288;8.726;2023-02-12T05:14:12;4.70;99.90
2226;DHT22;1119;48.288;8.726;2023-02-12T05:16:40;4.70;99.90
2226;DHT22;1119;48.288;8.726;2023-02-12T05:19:07;4.60;99.90
2226;DHT22;1119;48.288;8.726;2023-02-12T05:21:35;4.60;99.90
2226;DHT22;1119;48.288;8.726;2023-02-12T05:24:05;4.70;99.90
2226;DHT22;1119;48.288;8.726;2023-02-12T05:26:32;4.70;99.90
2226;DHT22;1119;48.288;8.726;2023-02-12T05:29:00;4.70;99.90
2226;DHT22;1119;48.288;8.726;2023-02-12T05:31:28;4.80;99.90
2226;DHT22;1119;48.288;8.726;2023-02-12T05:33:55;4.80;99.90
2226;DHT22;1119;48.288;8.726;2023-02-12T05:36:23;4.80;99.90
2226;DHT22;1119;48.288;8.726;2023-02-12T05:38:51;4.80;99.90
2226;DHT22;1119;48.288;8.726;2023-02-12T05:41:22;4.90;99.90
2226;DHT22;1119;48.288;8.726;2023-02-12T05:43:50;4.80;99.90
2226;DHT22;1119;48.288;8.726;2023-02-12T05:46:20;4.90;99.90
2226;DHT22;1119;48.288;8.726;2023-02-12T05:48:48;4.90;99.90
2226;DHT22;1119;48.288;8.726;2023-02-12T05:51:16;4.90;99.90
2226;DHT22;1119;48.288;8.726;2023-02-12T05:53:47;4.90;99.90
2226;DHT22;1119;48.288;8.726;2023-02-12T05:56:18;4.90;99.90
2226;DHT22;1119;48.288;8.726;2023-02-12T05:58:52;4.90;99.90
2226;DHT22;1119;48.288;8.726;2023-02-12T06:01:22;5.00;99.90
2226;DHT22;1119;48.288;8.726;2023-02-12T06:03:51;4.90;99.90
2226;DHT22;1119;48.288;8.726;2023-02-12T06:06:18;4.90;99.90
2226;DHT22;1119;48.288;8.726;2023-02-12T06:08:48;4.90;99.90
2226;DHT22;1119;48.288;8.726;2023-02-12T06:11:16;4.90;99.90
2226;DHT22;1119;48.288;8.726;2023-02-12T06:13:45;4.90;99.90
2226;DHT22;1119;48.288;8.726;2023-02-12T06:16:17;4.70;99.90
2226;DHT22;1119;48.288;8.726;2023-02-12T06:18:46;4.90;99.90
2226;DHT22;1119;48.288;8.726;2023-02-12T06:21:15;4.90;99.90
2226;DHT22;1119;48.288;8.726;2023-02-12T06:23:43;4.90;99.90
2226;DHT22;1119;48.288;8.726;2023-02-12T06:26:11;5.00;99.90
2226;DHT22;1119;48.288;8.726;2023-02-12T06:28:38;4.90;99.90
2226;DHT22;1119;48.288;8.726;2023-02-12T06:31:17;4.90;99.90
2226;DHT22;1119;48.288;8.726;2023-02-12T06:33:45;4.90;99.90
2226;DHT22;1119;48.288;8.726;2023-02-12T06:36:13;5.10;99.90
2226;DHT22;1119;48.288;8.726;2023-02-12T06:38:41;4.80;99.90
2226;DHT22;1119;48.288;8.726;2023-02-12T06:41:08;4.90;99.90
2226;DHT22;1119;48.288;8.726;2023-02-12T06:43:36;4.90;99.90
2226;DHT22;1119;48.288;8.726;2023-02-12T06:46:04;4.90;99.90
2226;DHT22;1119;48.288;8.726;2023-02-12T06:48:34;4.80;99.90
2226;DHT22;1119;48.288;8.726;2023-02-12T06:51:06;4.90;99.90
2226;DHT22;1119;48.288;8.726;2023-02-12T06:53:34;4.90;99.90
2226;DHT22;1119;48.288;8.726;2023-02-12T06:56:03;4.90;99.90
2226;DHT22;1119;48.288;8.726;2023-02-12T06:58:31;4.90;99.90
2226;DHT22;1119;48.288;8.726;2023-02-12T07:01:07;4.90;99.90
2226;DHT22;1119;48.288;8.726;2023-02-12T07:03:39;5.10;99.90
2226;DHT22;1119;48.288;8.726;2023-02-12T07:06:07;5.10;99.90
2226;DHT22;1119;48.288;8.726;2023-02-12T07:08:35;4.90;99.90
2226;DHT22;1119;48.288;8.726;2023-02-12T07:11:04;4.80;99.90
2226;DHT22;1119;48.288;8.726;2023-02-12T07:13:32;4.70;99.90
2226;DHT22;1119;48.288;8.726;2023-02-12T07:16:02;4.70;99.90
2226;DHT22;1119;48.288;8.726;2023-02-12T07:18:32;4.50;99.90
2226;DHT22;1119;48.288;8.726;2023-02-12T07:21:01;4.50;99.90
2226;DHT22;1119;48.288;8.726;2023-02-12T07:23:29;4.40;99.90
2226;DHT22;1119;48.288;8.726;2023-02-12T07:25:58;4.30;99.90
2226;DHT22;1119;48.288;8.726;2023-02-12T07:28:27;4.30;99.90
2226;DHT22;1119;48.288;8.726;2023-02-12T07:30:58;4.40;99.90
2226;DHT22;1119;48.288;8.726;2023-02-12T07:33:25;4.60;99.90
2226;DHT22;1119;48.288;8.726;2023-02-12T07:35:52;4.50;99.90
2226;DHT22;1119;48.288;8.726;2023-02-12T07:38:21;4.60;99.90
2226;DHT22;1119;48.288;8.726;2023-02-12T07:40:48;4.70;99.90
2226;DHT22;1119;48.288;8.726;2023-02-12T07:43:16;4.70;99.90
2226;DHT22;1119;48.288;8.726;2023-02-12T07:45:43;4.80;99.90
2226;DHT22;1119;48.288;8.726;2023-02-12T07:48:10;4.80;99.90
2226;DHT22;1119;48.288;8.726;2023-02-12T07:50:38;5.00;99.90
2226;DHT22;1119;48.288;8.726;2023-02-12T07:53:05;4.90;99.90
2226;DHT22;1119;48.288;8.726;2023-02-12T07:55:34;5.20;99.90
2226;DHT22;1119;48.288;8.726;2023-02-12T07:58:01;4.90;99.90
2226;DHT22;1119;48.288;8.726;2023-02-12T08:00:29;5.30;99.90
2226;DHT22;1119;48.288;8.726;2023-02-12T08:02:56;4.80;99.90
2226;DHT22;1119;48.288;8.726;2023-02-12T08:05:23;4.80;99.90
2226;DHT22;1119;48.288;8.726;2023-02-12T08:07:50;4.70;99.90
2226;DHT22;1119;48.288;8.726;2023-02-12T08:10:18;3.30;99.90
2226;DHT22;1119;48.288;8.726;2023-02-12T08:12:48;4.60;99.90
2226;DHT22;1119;48.288;8.726;2023-02-12T08:15:15;4.50;99.90
2226;DHT22;1119;48.288;8.726;2023-02-12T08:17:43;4.60;99.90
2226;DHT22;1119;48.288;8.726;2023-02-12T08:20:11;4.60;99.90
2226;DHT22;1119;48.288;8.726;2023-02-12T08:22:38;4.50;99.90
2226;DHT22;1119;48.288;8.726;2023-02-12T08:25:06;4.40;99.90
2226;DHT22;1119;48.288;8.726;2023-02-12T08:27:34;4.40;99.90
2226;DHT22;1119;48.288;8.726;2023-02-12T08:30:03;4.40;99.90
2226;DHT22;1119;48.288;8.726;2023-02-12T08:32:30;4.40;99.90
2226;DHT22;1119;48.288;8.726;2023-02-12T08:34:58;4.40;99.90
2226;DHT22;1119;48.288;8.726;2023-02-12T08:37:26;4.90;99.90
2226;DHT22;1119;48.288;8.726;2023-02-12T08:39:53;4.70;99.90
2226;DHT22;1119;48.288;8.726;2023-02-12T08:42:21;4.80;99.90
2226;DHT22;1119;48.288;8.726;2023-02-12T08:44:50;4.50;99.90
2226;DHT22;1119;48.288;8.726;2023-02-12T08:47:19;4.60;99.90
2226;DHT22;1119;48.288;8.726;2023-02-12T08:49:46;4.70;99.90
2226;DHT22;1119;48.288;8.726;2023-02-12T08:52:13;4.60;99.90
2226;DHT22;1119;48.288;8.726;2023-02-12T08:54:40;4.70;99.90
2226;DHT22;1119;48.288;8.726;2023-02-12T08:57:08;4.80;99.90
2226;DHT22;1119;48.288;8.726;2023-02-12T08:59:38;4.80;99.90
2226;DHT22;1119;48.288;8.726;2023-02-12T09:02:10;4.90;99.90
2226;DHT22;1119;48.288;8.726;2023-02-12T09:04:38;5.00;99.90
2226;DHT22;1119;48.288;8.726;2023-02-12T09:07:06;5.10;99.90
2226;DHT22;1119;48.288;8.726;2023-02-12T09:09:34;5.20;99.90
2226;DHT22;1119;48.288;8.726;2023-02-12T09:12:04;5.20;99.90
2226;DHT22;1119;48.288;8.726;2023-02-12T09:14:31;5.20;99.90
2226;DHT22;1119;48.288;8.726;2023-02-12T09:16:59;5.20;99.90
2226;DHT22;1119;48.288;8.726;2023-02-12T09:19:26;5.20;99.90
2226;DHT22;1119;48.288;8.726;2023-02-12T09:21:55;5.30;99.90
2226;DHT22;1119;48.288;8.726;2023-02-12T09:24:24;5.30;99.90
2226;DHT22;1119;48.288;8.726;2023-02-12T09:26:52;5.30;99.90
2226;DHT22;1119;48.288;8.726;2023-02-12T09:29:19;5.40;99.90
2226;DHT22;1119;48.288;8.726;2023-02-12T09:31:46;5.50;99.90
2226;DHT22;1119;48.288;8.726;2023-02-12T09:34:14;5.50;99.90
2226;DHT22;1119;48.288;8.726;2023-02-12T09:36:41;5.60;99.90
2226;DHT22;1119;48.288;8.726;2023-02-12T09:39:10;5.60;99.90
2226;DHT22;1119;48.288;8.726;2023-02-12T09:41:52;5.60;99.90
2226;DHT22;1119;48.288;8.726;2023-02-12T09:44:32;5.50;99.90
2226;DHT22;1119;48.288;8.726;2023-02-12T09:47:07;5.50;99.90
2226;DHT22;1119;48.288;8.726;2023-02-12T09:49:57;5.60;99.90
2226;DHT22;1119;48.288;8.726;2023-02-12T09:52:33;5.60;99.90
2226;DHT22;1119;48.288;8.726;2023-02-12T09:55:03;5.60;99.90
2226;DHT22;1119;48.288;8.726;2023-02-12T09:57:32;5.60;99.90
2226;DHT22;1119;48.288;8.726;2023-02-12T10:00:04;5.70;99.90
2226;DHT22;1119;48.288;8.726;2023-02-12T10:02:35;5.70;99.90
2226;DHT22;1119;48.288;8.726;2023-02-12T10:05:05;5.70;99.90
2226;DHT22;1119;48.288;8.726;2023-02-12T10:08:01;5.70;99.90
2226;DHT22;1119;48.288;8.726;2023-02-12T10:10:47;5.80;99.90
2226;DHT22;1119;48.288;8.726;2023-02-12T10:13:26;5.80;99.90
2226;DHT22;1119;48.288;8.726;2023-02-12T10:16:08;5.80;99.90
2226;DHT22;1119;48.288;8.726;2023-02-12T10:19:00;5.90;99.90
2226;DHT22;1119;48.288;8.726;2023-02-12T10:21:44;5.90;99.90
2226;DHT22;1119;48.288;8.726;2023-02-12T10:24:35;5.80;99.90
2226;DHT22;1119;48.288;8.726;2023-02-12T10:27:14;5.90;99.90
2226;DHT22;1119;48.288;8.726;2023-02-12T10:29:44;5.80;99.90
2226;DHT22;1119;48.288;8.726;2023-02-12T10:32:18;5.70;99.90
2226;DHT22;1119;48.288;8.726;2023-02-12T10:34:49;5.70;99.90
2226;DHT22;1119;48.288;8.726;2023-02-12T10:37:25;5.60;99.90
2226;DHT22;1119;48.288;8.726;2023-02-12T10:39:57;5.60;99.90
2226;DHT22;1119;48.288;8.726;2023-02-12T10:42:36;5.60;99.90
2226;DHT22;1119;48.288;8.726;2023-02-12T10:45:08;5.50;99.90
2226;DHT22;1119;48.288;8.726;2023-02-12T10:47:39;5.40;99.90
2226;DHT22;1119;48.288;8.726;2023-02-12T10:50:17;5.30;99.90
2226;DHT22;1119;48.288;8.726;2023-02-12T10:52:53;5.30;99.90
2226;DHT22;1119;48.288;8.726;2023-02-12T10:55:25;5.30;99.90
2226;DHT22;1119;48.288;8.726;2023-02-12T10:57:56;5.30;99.90
2226;DHT22;1119;48.288;8.726;2023-02-12T11:00:26;5.40;99.90
2226;DHT22;1119;48.288;8.726;2023-02-12T11:03:19;5.40;99.90
2226;DHT22;1119;48.288;8.726;2023-02-12T11:05:49;5.50;99.90
2226;DHT22;1119;48.288;8.726;2023-02-12T11:08:29;5.50;99.90
2226;DHT22;1119;48.288;8.726;2023-02-12T11:11:07;5.70;99.90
2226;DHT22;1119;48.288;8.726;2023-02-12T11:13:41;5.70;99.90
2226;DHT22;1119;48.288;8.726;2023-02-12T11:16:12;5.80;99.90
2226;DHT22;1119;48.288;8.726;2023-02-12T11:18:39;5.80;99.90
2226;DHT22;1119;48.288;8.726;2023-02-12T11:21:09;5.80;99.90
2226;DHT22;1119;48.288;8.726;2023-02-12T11:23:39;5.80;99.90
2226;DHT22;1119;48.288;8.726;2023-02-12T11:26:23;5.70;99.90
2226;DHT22;1119;48.288;8.726;2023-02-12T11:28:56;5.70;99.90
2226;DHT22;1119;48.288;8.726;2023-02-12T11:31:27;5.60;99.90
2226;DHT22;1119;48.288;8.726;2023-02-12T11:34:12;5.80;99.90
2226;DHT22;1119;48.288;8.726;2023-02-12T11:36:42;5.70;99.90
2226;DHT22;1119;48.288;8.726;2023-02-12T11:39:18;5.60;99.90
2226;DHT22;1119;48.288;8.726;2023-02-12T11:41:50;5.60;99.90
2226;DHT22;1119;48.288;8.726;2023-02-12T11:44:23;5.50;99.90
2226;DHT22;1119;48.288;8.726;2023-02-12T11:46:54;5.50;99.90
2226;DHT22;1119;48.288;8.726;2023-02-12T11:49:27;5.60;99.90
2226;DHT22;1119;48.288;8.726;2023-02-12T11:51:57;5.60;99.90
2226;DHT22;1119;48.288;8.726;2023-02-12T11:54:29;5.70;99.90
2226;DHT22;1119;48.288;8.726;2023-02-12T11:56:58;5.70;99.90
2226;DHT22;1119;48.288;8.726;2023-02-12T11:59:34;5.80;99.90
2226;DHT22;1119;48.288;8.726;2023-02-12T12:02:14;5.80;99.90
2226;DHT22;1119;48.288;8.726;2023-02-12T12:04:46;5.80;99.90
2226;DHT22;1119;48.288;8.726;2023-02-12T12:07:30;5.80;99.90
2226;DHT22;1119;48.288;8.726;2023-02-12T12:10:03;5.70;99.90
2226;DHT22;1119;48.288;8.726;2023-02-12T12:12:37;5.80;99.90
2226;DHT22;1119;48.288;8.726;2023-02-12T12:15:16;5.90;99.90
2226;DHT22;1119;48.288;8.726;2023-02-12T12:18:21;5.90;99.90
2226;DHT22;1119;48.288;8.726;2023-02-12T12:21:12;5.90;99.90
2226;DHT22;1119;48.288;8.726;2023-02-12T12:23:46;5.90;99.90
2226;DHT22;1119;48.288;8.726;2023-02-12T12:26:22;5.90;99.90
2226;DHT22;1119;48.288;8.726;2023-02-12T12:28:56;6.00;99.90
2226;DHT22;1119;48.288;8.726;2023-02-12T12:31:32;5.90;99.90
2226;DHT22;1119;48.288;8.726;2023-02-12T12:34:06;6.00;99.90
2226;DHT22;1119;48.288;8.726;2023-02-12T12:36:57;6.00;99.90
2226;DHT22;1119;48.288;8.726;2023-02-12T12:39:56;6.00;99.90
2226;DHT22;1119;48.288;8.726;2023-02-12T12:42:52;6.00;99.90
2226;DHT22;1119;48.288;8.726;2023-02-12T12:45:48;5.90;99.90
2226;DHT22;1119;48.288;8.726;2023-02-12T12:48:43;5.90;99.90
2226;DHT22;1119;48.288;8.726;2023-02-12T12:51:27;5.90;99.90
2226;DHT22;1119;48.288;8.726;2023-02-12T12:54:12;6.00;99.90
2226;DHT22;1119;48.288;8.726;2023-02-12T12:56:55;6.00;99.90
2226;DHT22;1119;48.288;8.726;2023-02-12T12:59:43;6.00;99.90
2226;DHT22;1119;48.288;8.726;2023-02-12T13:02:50;6.00;99.90
2226;DHT22;1119;48.288;8.726;2023-02-12T13:08:41;6.00;99.90
2226;DHT22;1119;48.288;8.726;2023-02-12T13:11:35;6.10;99.90
2226;DHT22;1119;48.288;8.726;2023-02-12T13:14:16;6.20;99.90
2226;DHT22;1119;48.288;8.726;2023-02-12T13:16:58;6.20;99.90
2226;DHT22;1119;48.288;8.726;2023-02-12T13:19:36;6.20;99.90
2226;DHT22;1119;48.288;8.726;2023-02-12T13:22:17;6.20;99.90
2226;DHT22;1119;48.288;8.726;2023-02-12T13:24:56;6.40;99.90
2226;DHT22;1119;48.288;8.726;2023-02-12T13:27:31;6.40;99.90
2226;DHT22;1119;48.288;8.726;2023-02-12T13:30:04;6.40;99.90
2226;DHT22;1119;48.288;8.726;2023-02-12T13:32:41;6.50;99.90
2226;DHT22;1119;48.288;8.726;2023-02-12T13:35:15;6.50;99.90
2226;DHT22;1119;48.288;8.726;2023-02-12T13:37:48;6.50;99.90
2226;DHT22;1119;48.288;8.726;2023-02-12T13:40:19;6.50;99.90
2226;DHT22;1119;48.288;8.726;2023-02-12T13:42:54;6.50;99.90
2226;DHT22;1119;48.288;8.726;2023-02-12T13:45:40;6.50;99.90
2226;DHT22;1119;48.288;8.726;2023-02-12T13:48:26;6.50;99.90
2226;DHT22;1119;48.288;8.726;2023-02-12T13:51:05;6.50;99.90
2226;DHT22;1119;48.288;8.726;2023-02-12T13:53:48;6.50;99.90
2226;DHT22;1119;48.288;8.726;2023-02-12T13:56:31;6.40;99.90
2226;DHT22;1119;48.288;8.726;2023-02-12T13:59:00;6.50;99.90
2226;DHT22;1119;48.288;8.726;2023-02-12T14:01:37;6.70;99.90
2226;DHT22;1119;48.288;8.726;2023-02-12T14:04:28;6.50;99.90
2226;DHT22;1119;48.288;8.726;2023-02-12T14:06:59;6.50;99.90
2226;DHT22;1119;48.288;8.726;2023-02-12T14:09:34;6.70;99.90
2226;DHT22;1119;48.288;8.726;2023-02-12T14:12:04;6.70;99.90
2226;DHT22;1119;48.288;8.726;2023-02-12T14:14:37;6.80;99.90
2226;DHT22;1119;48.288;8.726;2023-02-12T14:17:41;6.80;99.90
2226;DHT22;1119;48.288;8.726;2023-02-12T14:20:26;6.80;99.90
2226;DHT22;1119;48.288;8.726;2023-02-12T14:23:25;6.80;99.90
2226;DHT22;1119;48.288;8.726;2023-02-12T14:26:00;6.80;99.90
2226;DHT22;1119;48.288;8.726;2023-02-12T14:28:42;6.70;99.90
2226;DHT22;1119;48.288;8.726;2023-02-12T14:31:41;6.90;99.90
2226;DHT22;1119;48.288;8.726;2023-02-12T14:37:36;6.80;99.90
2226;DHT22;1119;48.288;8.726;2023-02-12T14:40:38;6.80;99.90
2226;DHT22;1119;48.288;8.726;2023-02-12T14:43:29;6.80;99.90
2226;DHT22;1119;48.288;8.726;2023-02-12T14:49:30;6.90;99.90
2226;DHT22;1119;48.288;8.726;2023-02-12T14:52:02;6.90;99.90
2226;DHT22;1119;48.288;8.726;2023-02-12T14:54:33;7.00;99.90
2226;DHT22;1119;48.288;8.726;2023-02-12T14:57:05;7.00;99.90
2226;DHT22;1119;48.288;8.726;2023-02-12T14:59:40;7.10;99.90
2226;DHT22;1119;48.288;8.726;2023-02-12T15:02:13;7.10;99.90
2226;DHT22;1119;48.288;8.726;2023-02-12T15:04:49;7.20;99.90
2226;DHT22;1119;48.288;8.726;2023-02-12T15:07:23;7.20;99.90
2226;DHT22;1119;48.288;8.726;2023-02-12T15:09:57;7.20;99.90
2226;DHT22;1119;48.288;8.726;2023-02-12T15:12:35;7.10;99.90
2226;DHT22;1119;48.288;8.726;2023-02-12T15:15:12;7.10;99.90
2226;DHT22;1119;48.288;8.726;2023-02-12T15:17:53;7.10;99.90
2226;DHT22;1119;48.288;8.726;2023-02-12T15:20:24;7.10;99.90
2226;DHT22;1119;48.288;8.726;2023-02-12T15:22:56;7.20;99.90
2226;DHT22;1119;48.288;8.726;2023-02-12T15:25:25;7.20;99.90
2226;DHT22;1119;48.288;8.726;2023-02-12T15:27:55;7.20;99.90
2226;DHT22;1119;48.288;8.726;2023-02-12T15:30:27;7.10;99.90
2226;DHT22;1119;48.288;8.726;2023-02-12T15:32:58;7.10;99.90
2226;DHT22;1119;48.288;8.726;2023-02-12T15:35:29;7.10;99.90
2226;DHT22;1119;48.288;8.726;2023-02-12T15:37:59;7.10;99.90
2226;DHT22;1119;48.288;8.726;2023-02-12T15:40:27;7.10;99.90
2226;DHT22;1119;48.288;8.726;2023-02-12T15:42:57;7.10;99.90
2226;DHT22;1119;48.288;8.726;2023-02-12T15:45:28;7.00;99.90
2226;DHT22;1119;48.288;8.726;2023-02-12T15:47:59;6.70;99.90
2226;DHT22;1119;48.288;8.726;2023-02-12T15:50:32;6.90;99.90
2226;DHT22;1119;48.288;8.726;2023-02-12T15:53:00;6.90;99.90
2226;DHT22;1119;48.288;8.726;2023-02-12T15:55:33;6.90;99.90
2226;DHT22;1119;48.288;8.726;2023-02-12T15:58:02;6.90;99.90
2226;DHT22;1119;48.288;8.726;2023-02-12T16:00:41;6.80;99.90
2226;DHT22;1119;48.288;8.726;2023-02-12T16:03:20;6.70;99.90
2226;DHT22;1119;48.288;8.726;2023-02-12T16:05:49;6.60;99.90
2226;DHT22;1119;48.288;8.726;2023-02-12T16:08:20;6.60;99.90
2226;DHT22;1119;48.288;8.726;2023-02-12T16:10:51;6.60;99.90
2226;DHT22;1119;48.288;8.726;2023-02-12T16:13:26;6.70;99.90
2226;DHT22;1119;48.288;8.726;2023-02-12T16:16:06;6.60;99.90
2226;DHT22;1119;48.288;8.726;2023-02-12T16:18:40;6.60;99.90
2226;DHT22;1119;48.288;8.726;2023-02-12T16:21:15;6.50;99.90
2226;DHT22;1119;48.288;8.726;2023-02-12T16:23:46;6.50;99.90
2226;DHT22;1119;48.288;8.726;2023-02-12T16:26:17;6.60;99.90
2226;DHT22;1119;48.288;8.726;2023-02-12T16:28:47;6.50;99.90
2226;DHT22;1119;48.288;8.726;2023-02-12T16:31:18;6.50;99.90
2226;DHT22;1119;48.288;8.726;2023-02-12T16:33:49;6.40;99.90
2226;DHT22;1119;48.288;8.726;2023-02-12T16:36:29;6.40;99.90
2226;DHT22;1119;48.288;8.726;2023-02-12T16:38:58;6.50;99.90
2226;DHT22;1119;48.288;8.726;2023-02-12T16:41:27;6.30;99.90
2226;DHT22;1119;48.288;8.726;2023-02-12T16:44:25;6.40;99.90
2226;DHT22;1119;48.288;8.726;2023-02-12T16:46:58;6.20;99.90
2226;DHT22;1119;48.288;8.726;2023-02-12T16:49:26;6.20;99.90
2226;DHT22;1119;48.288;8.726;2023-02-12T16:52:18;6.10;99.90
2226;DHT22;1119;48.288;8.726;2023-02-12T16:54:48;6.10;99.90
2226;DHT22;1119;48.288;8.726;2023-02-12T16:57:15;6.10;99.90
2226;DHT22;1119;48.288;8.726;2023-02-12T16:59:42;6.10;99.90
2226;DHT22;1119;48.288;8.726;2023-02-12T17:02:13;6.10;99.90
2226;DHT22;1119;48.288;8.726;2023-02-12T17:04:41;6.00;99.90
2226;DHT22;1119;48.288;8.726;2023-02-12T17:07:17;6.00;99.90
2226;DHT22;1119;48.288;8.726;2023-02-12T17:09:46;6.00;99.90
2226;DHT22;1119;48.288;8.726;2023-02-12T17:12:14;6.00;99.90
2226;DHT22;1119;48.288;8.726;2023-02-12T17:14:41;6.00;99.90